North American — WBL7959 — position and weather

sailwx.info

Track history (hours):
 
Tides and Currents Weather Stations Pressure Air Temp Water Temp Dewpoint Dewpoint Depression Visibility Wind Speed Wind Dir Waves Ship Positions

North American

Owner: NORTH AMERICAN INC, SEATTLE, WA. More information available from US FCC via Universal Licensing System and Coast Guard Vessel Documentation Center.

Last reported at 2018-Jun-19 06:48 UTC. Time now 2018-Jun-20 11:12 UTC.
Position N 54°38' W 130°44'.

; draft 2.5 m.

Type: Fishing. MMSI: 367307370.

Date/timePositionNaut miles runAvg speedWind from/ knotsBaromVisibWave heightAir tempDewpointWater temp
2018-Jun-19 06:48N 54°38' W 130°44'310.4
2018-Jun-19 06:30N 54°35' W 130°43'5 9.9
2018-Jun-19 06:00N 54°30' W 130°41'5 9.4
2018-Jun-19 05:30N 54°26' W 130°38'4 9.1
2018-Jun-19 05:00N 54°21' W 130°35'5 9.6
2018-Jun-19 04:30N 54°17' W 130°32'5 9.7
2018-Jun-19 04:00N 54°13' W 130°28'5 9.7
2018-Jun-19 03:30N 54°09' W 130°24'5 9.6
2018-Jun-19 03:00N 54°05' W 130°18'5 9.8
2018-Jun-19 02:30N 54°01' W 130°13'5 9.6
2018-Jun-19 02:00N 53°57' W 130°12'5 9.4
2018-Jun-19 01:30N 53°53' W 130°06'5 9.4
2018-Jun-19 01:00N 53°50' W 130°00'4 8.9
2018-Jun-19 00:30N 53°47' W 129°55'82 8.5
2018-Jun-18 14:46N 52°41' W 128°33'2 7.6
2018-Jun-18 14:30N 52°39' W 128°32'4 8.0
2018-Jun-18 14:00N 52°35' W 128°31'5 9.5
2018-Jun-18 13:30N 52°30' W 128°28'5 9.3
2018-Jun-18 13:00N 52°26' W 128°29'5 9.6
2018-Jun-18 12:30N 52°21' W 128°31'5 9.7
2018-Jun-18 11:58N 52°17' W 128°27'510.2
2018-Jun-18 11:30N 52°15' W 128°19'5 9.9
2018-Jun-18 11:00N 52°14' W 128°11'4 8.0
2018-Jun-18 10:30N 52°10' W 128°07'5 9.6
2018-Jun-18 10:00N 52°06' W 128°07'5 9.4
2018-Jun-18 09:30N 52°05' W 127°60'4 8.7
2018-Jun-18 09:00N 52°01' W 127°56'510.4
2018-Jun-18 08:30N 51°56' W 127°56'510.1
2018-Jun-18 08:00N 51°51' W 127°56'5 9.9
2018-Jun-18 07:30N 51°46' W 127°56'5 9.7
2018-Jun-18 07:00N 51°41' W 127°55'5 9.7
2018-Jun-18 06:30N 51°37' W 127°53'5 9.0
2018-Jun-18 06:00N 51°32' W 127°52'5 9.2
2018-Jun-18 05:30N 51°28' W 127°51'5 9.2
2018-Jun-18 04:58N 51°23' W 127°51'4 9.1
2018-Jun-18 04:29N 51°18' W 127°52'5 8.6
2018-Jun-18 03:57N 51°14' W 127°52'4 9.0
2018-Jun-18 03:29N 51°09' W 127°51'510.1
2018-Jun-18 03:00N 51°05' W 127°49'5 9.7
2018-Jun-18 02:29N 51°00' W 127°46'4 9.3
2018-Jun-18 02:00N 50°57' W 127°41'5 9.0
2018-Jun-18 01:30N 50°54' W 127°36'5 9.5
2018-Jun-18 01:00N 50°51' W 127°30'5 9.3
2018-Jun-18 00:30N 50°48' W 127°24'5 9.3
2018-Jun-17 23:57N 50°44' W 127°19'5 9.2
2018-Jun-17 23:24N 50°40' W 127°14'4 9.1
2018-Jun-17 23:00N 50°38' W 127°09'4 8.7
2018-Jun-17 22:30N 50°37' W 127°03'4 9.0
2018-Jun-17 22:00N 50°35' W 126°57'510.0
2018-Jun-17 21:27N 50°34' W 126°48'510.4
2018-Jun-17 21:00N 50°32' W 126°41'610.0
2018-Jun-17 20:27N 50°31' W 126°33'4011.2
2018-Jun-17 16:50N 50°21' W 125°31'411.1
2018-Jun-17 16:29N 50°19' W 125°25'510.9
2018-Jun-17 15:59N 50°14' W 125°23'510.2
2018-Jun-17 15:30N 50°09' W 125°22'4 8.3
2018-Jun-17 15:00N 50°06' W 125°18'4 8.1
2018-Jun-17 14:30N 50°03' W 125°14'3 6.5
2018-Jun-17 14:00N 49°60' W 125°12'4 8.4
2018-Jun-17 13:30N 49°57' W 125°08'5 9.7
2018-Jun-17 13:01N 49°53' W 125°03'510.1
2018-Jun-17 12:30N 49°50' W 124°57'5 9.9
2018-Jun-17 12:00N 49°46' W 124°52'5 9.5
2018-Jun-17 11:30N 49°42' W 124°47'4 9.1
2018-Jun-17 11:00N 49°39' W 124°42'5 9.1
2018-Jun-17 10:30N 49°36' W 124°37'57 8.6
2018-Jun-17 03:56N 49°01' W 123°28'7 9.1
2018-Jun-17 03:08N 48°56' W 123°21'3 8.6
2018-Jun-17 02:44N 48°53' W 123°18'2 8.0
2018-Jun-17 02:30N 48°52' W 123°20'4 8.9
2018-Jun-17 02:00N 48°47' W 123°20'6 9.6
2018-Jun-17 01:20N 48°42' W 123°15'412.2
2018-Jun-17 00:58N 48°37' W 123°13'612.2
2018-Jun-17 00:30N 48°32' W 123°10'42 9.7
2018-Jun-16 20:12N 47°58' W 122°34'210.4
2018-Jun-16 19:59N 47°57' W 122°31'510.0
2018-Jun-16 19:30N 47°52' W 122°27'5 9.9
2018-Jun-16 19:00N 47°48' W 122°26'510.5
2018-Jun-16 18:30N 47°42' W 122°25'  
Track history (hours):
 
Tides and Currents Weather Stations Pressure Air Temp Water Temp Dewpoint Dewpoint Depression Visibility Wind Speed Wind Dir Waves Ship Positions

North American

Owner: NORTH AMERICAN INC, SEATTLE, WA. More information available from US FCC via Universal Licensing System and Coast Guard Vessel Documentation Center.

Last reported at 2018-Jun-19 06:48 UTC. Time now 2018-Jun-20 11:12 UTC.
Position N 54°38' W 130°44'.

; draft 2.5 m.

Type: Fishing. MMSI: 367307370.

Date/timePositionNaut miles runAvg speedWind from/ knotsBaromVisibWave heightAir tempDewpointWater temp
2018-Jun-19 06:48N 54°38' W 130°44'310.4
2018-Jun-19 06:30N 54°35' W 130°43'5 9.9
2018-Jun-19 06:00N 54°30' W 130°41'5 9.4
2018-Jun-19 05:30N 54°26' W 130°38'4 9.1
2018-Jun-19 05:00N 54°21' W 130°35'5 9.6
2018-Jun-19 04:30N 54°17' W 130°32'5 9.7
2018-Jun-19 04:00N 54°13' W 130°28'5 9.7
2018-Jun-19 03:30N 54°09' W 130°24'5 9.6
2018-Jun-19 03:00N 54°05' W 130°18'5 9.8
2018-Jun-19 02:30N 54°01' W 130°13'5 9.6
2018-Jun-19 02:00N 53°57' W 130°12'5 9.4
2018-Jun-19 01:30N 53°53' W 130°06'5 9.4
2018-Jun-19 01:00N 53°50' W 130°00'4 8.9
2018-Jun-19 00:30N 53°47' W 129°55'82 8.5
2018-Jun-18 14:46N 52°41' W 128°33'2 7.6
2018-Jun-18 14:30N 52°39' W 128°32'4 8.0
2018-Jun-18 14:00N 52°35' W 128°31'5 9.5
2018-Jun-18 13:30N 52°30' W 128°28'5 9.3
2018-Jun-18 13:00N 52°26' W 128°29'5 9.6
2018-Jun-18 12:30N 52°21' W 128°31'5 9.7
2018-Jun-18 11:58N 52°17' W 128°27'510.2
2018-Jun-18 11:30N 52°15' W 128°19'5 9.9
2018-Jun-18 11:00N 52°14' W 128°11'4 8.0
2018-Jun-18 10:30N 52°10' W 128°07'5 9.6
2018-Jun-18 10:00N 52°06' W 128°07'5 9.4
2018-Jun-18 09:30N 52°05' W 127°60'4 8.7
2018-Jun-18 09:00N 52°01' W 127°56'510.4
2018-Jun-18 08:30N 51°56' W 127°56'510.1
2018-Jun-18 08:00N 51°51' W 127°56'5 9.9
2018-Jun-18 07:30N 51°46' W 127°56'5 9.7
2018-Jun-18 07:00N 51°41' W 127°55'5 9.7
2018-Jun-18 06:30N 51°37' W 127°53'5 9.0
2018-Jun-18 06:00N 51°32' W 127°52'5 9.2
2018-Jun-18 05:30N 51°28' W 127°51'5 9.2
2018-Jun-18 04:58N 51°23' W 127°51'4 9.1
2018-Jun-18 04:29N 51°18' W 127°52'5 8.6
2018-Jun-18 03:57N 51°14' W 127°52'4 9.0
2018-Jun-18 03:29N 51°09' W 127°51'510.1
2018-Jun-18 03:00N 51°05' W 127°49'5 9.7
2018-Jun-18 02:29N 51°00' W 127°46'4 9.3
2018-Jun-18 02:00N 50°57' W 127°41'5 9.0
2018-Jun-18 01:30N 50°54' W 127°36'5 9.5
2018-Jun-18 01:00N 50°51' W 127°30'5 9.3
2018-Jun-18 00:30N 50°48' W 127°24'5 9.3
2018-Jun-17 23:57N 50°44' W 127°19'5 9.2
2018-Jun-17 23:24N 50°40' W 127°14'4 9.1
2018-Jun-17 23:00N 50°38' W 127°09'4 8.7
2018-Jun-17 22:30N 50°37' W 127°03'4 9.0
2018-Jun-17 22:00N 50°35' W 126°57'510.0
2018-Jun-17 21:27N 50°34' W 126°48'510.4
2018-Jun-17 21:00N 50°32' W 126°41'610.0
2018-Jun-17 20:27N 50°31' W 126°33'4011.2
2018-Jun-17 16:50N 50°21' W 125°31'411.1
2018-Jun-17 16:29N 50°19' W 125°25'510.9
2018-Jun-17 15:59N 50°14' W 125°23'510.2
2018-Jun-17 15:30N 50°09' W 125°22'4 8.3
2018-Jun-17 15:00N 50°06' W 125°18'4 8.1
2018-Jun-17 14:30N 50°03' W 125°14'3 6.5
2018-Jun-17 14:00N 49°60' W 125°12'4 8.4
2018-Jun-17 13:30N 49°57' W 125°08'5 9.7
2018-Jun-17 13:01N 49°53' W 125°03'510.1
2018-Jun-17 12:30N 49°50' W 124°57'5 9.9
2018-Jun-17 12:00N 49°46' W 124°52'5 9.5
2018-Jun-17 11:30N 49°42' W 124°47'4 9.1
2018-Jun-17 11:00N 49°39' W 124°42'5 9.1
2018-Jun-17 10:30N 49°36' W 124°37'57 8.6
2018-Jun-17 03:56N 49°01' W 123°28'7 9.1
2018-Jun-17 03:08N 48°56' W 123°21'3 8.6
2018-Jun-17 02:44N 48°53' W 123°18'2 8.0
2018-Jun-17 02:30N 48°52' W 123°20'4 8.9
2018-Jun-17 02:00N 48°47' W 123°20'6 9.6
2018-Jun-17 01:20N 48°42' W 123°15'412.2
2018-Jun-17 00:58N 48°37' W 123°13'612.2
2018-Jun-17 00:30N 48°32' W 123°10'42 9.7
2018-Jun-16 20:12N 47°58' W 122°34'210.4
2018-Jun-16 19:59N 47°57' W 122°31'510.0
2018-Jun-16 19:30N 47°52' W 122°27'5 9.9
2018-Jun-16 19:00N 47°48' W 122°26'510.5
2018-Jun-16 18:30N 47°42' W 122°25'  

Dump ship's entire track history